Wilson Heron — 9HJW9 — position and weather

sailwx.info

Track history (hours):
 
Tides and Currents Weather Stations Pressure Air Temp Water Temp Dewpoint Dewpoint Depression Visibility Wind Speed Wind Dir Waves Ship Positions

Wilson Heron

Last reported at 2016-Dec-08 06:33 UTC. Time now 2016-Dec-09 09:50 UTC.
Position N 43°43' W 005°06'.

Length 91 m; draft 4.1 m.

Type: Cargo ship. MMSI: 249075000.

Date/timePositionNaut miles runAvg speedWind from/ knotsBaromVisibWave heightAir tempDewpointWater temp
2016-Dec-08 06:33N 43°43' W 005°06'10 9.7
2016-Dec-08 05:32N 43°42' W 004°52'10 9.7
2016-Dec-08 04:33N 43°42' W 004°39'89 9.8
2016-Dec-07 19:29N 43°33' W 002°36'1010.3
2016-Dec-07 18:29N 43°29' W 002°23'1110.4
2016-Dec-07 17:28N 43°25' W 002°10'1010.5
2016-Dec-07 16:33N 43°22' W 001°58'1 0.0
2016-Dec-06 23:29N 43°21' W 001°57'28310.3
2016-Dec-05 20:07N 47°31' W 005°05'910.8
2016-Dec-05 19:17N 47°40' W 005°10'810.4
2016-Dec-05 18:30N 47°47' W 005°16'96 7.8
2016-Dec-05 06:18N 49°19' W 004°39'3010.8
2016-Dec-05 03:33N 49°34' W 004°00'1611.8
2016-Dec-05 02:12N 49°42' W 003°39'711.5
2016-Dec-05 01:33N 49°46' W 003°29'1110.9
2016-Dec-05 00:33N 49°51' W 003°14'1010.1
2016-Dec-04 23:33N 49°56' W 003°01'9 9.4
2016-Dec-04 22:33N 49°60' W 002°47'34 9.8
2016-Dec-04 19:06N 50°09' W 001°57'812.1
2016-Dec-04 18:25N 50°12' W 001°45'1112.8
2016-Dec-04 17:33N 50°15' W 001°28'2713.3
2016-Dec-04 15:33N 50°23' W 000°48'1312.1
2016-Dec-04 14:30N 50°26' W 000°29'1111.2
2016-Dec-04 13:32N 50°29' W 000°13'1010.2
2016-Dec-04 12:33N 50°32' E 000°02'9 9.4
2016-Dec-04 11:33N 50°35' E 000°16'3310.5
2016-Dec-04 08:24N 50°51' E 001°02'1012.3
2016-Dec-04 07:33N 50°58' E 001°15'1211.9
2016-Dec-04 06:33N 51°05' E 001°29'1010.5
2016-Dec-04 05:33N 51°12' E 001°42'10 9.5
2016-Dec-04 04:33N 51°19' E 001°51'9 9.2
2016-Dec-04 03:33N 51°27' E 001°59'10 9.8
2016-Dec-04 02:33N 51°34' E 002°10'5410.8
2016-Dec-03 21:32N 52°03' E 003°24'1111.3
2016-Dec-03 20:33N 52°03' E 003°43'9 9.3
2016-Dec-03 19:33N 52°02' E 003°58'1110.8
2016-Dec-03 18:33N 51°56' E 004°12'2 2.3
2016-Dec-03 17:32N 51°54' E 004°14'0 0.0
2016-Dec-03 16:32N 51°54' E 004°14'0 0.0
2016-Dec-03 15:32N 51°54' E 004°14'0 0.0
2016-Dec-03 14:33N 51°54' E 004°14'0 0.0
2016-Dec-03 13:32N 51°54' E 004°14'0 0.0
2016-Dec-03 12:31N 51°54' E 004°14'0 0.0
2016-Dec-03 11:32N 51°54' E 004°14'0 0.0
2016-Dec-03 10:32N 51°54' E 004°14'0 0.0
2016-Dec-03 09:31N 51°54' E 004°14'0 0.0
2016-Dec-03 08:32N 51°54' E 004°14'0 0.0
2016-Dec-03 07:32N 51°54' E 004°14'0 0.0
2016-Dec-03 06:32N 51°54' E 004°14'0 0.0
2016-Dec-03 05:32N 51°54' E 004°14'0 0.0
2016-Dec-03 04:32N 51°54' E 004°14'0 0.0
2016-Dec-03 03:31N 51°54' E 004°14'0 0.0
2016-Dec-03 02:29N 51°54' E 004°14'0 0.0
2016-Dec-03 01:32N 51°54' E 004°14'0 0.0
2016-Dec-03 00:32N 51°54' E 004°14'0 0.0
2016-Dec-02 23:32N 51°54' E 004°14'0 0.0
2016-Dec-02 22:32N 51°54' E 004°14'0 0.1
2016-Dec-02 21:32N 51°54' E 004°14'0 0.0
2016-Dec-02 20:29N 51°54' E 004°14'0 0.0
2016-Dec-02 19:32N 51°54' E 004°14'0 0.0
2016-Dec-02 18:31N 51°54' E 004°14'0 0.0
2016-Dec-02 17:31N 51°54' E 004°14'0 0.0
2016-Dec-02 16:32N 51°54' E 004°14'0 0.0
2016-Dec-02 15:32N 51°54' E 004°14'0 0.0
2016-Dec-02 14:32N 51°54' E 004°14'0 0.0
2016-Dec-02 13:32N 51°54' E 004°14'0 0.0
2016-Dec-02 12:31N 51°54' E 004°14'0 0.0
2016-Dec-02 11:31N 51°54' E 004°14'0 0.0
2016-Dec-02 10:31N 51°54' E 004°14'1 0.9
2016-Dec-02 09:33N 51°54' E 004°14'1010.0
2016-Dec-02 08:33N 51°60' E 004°00'10 9.7
2016-Dec-02 07:33N 52°02' E 003°44'19 8.8
2016-Dec-02 05:25N 52°12' E 003°19'8 8.4
2016-Dec-02 04:31N 52°16' E 003°09'55 8.7
2016-Dec-01 22:13N 52°47' E 001°54'6 9.2
2016-Dec-01 21:33N 52°50' E 001°46'10 9.7
2016-Dec-01 20:33N 52°57' E 001°35'1010.3
2016-Dec-01 19:33N 53°06' E 001°25'1111.2
2016-Dec-01 18:32N 53°15' E 001°15'5611.2
2016-Dec-01 13:32N 54°03' E 000°26'9 9.6
2016-Dec-01 12:33N 54°11' E 000°18'9 9.4
2016-Dec-01 11:33N 54°19' E 000°10'9 9.3
2016-Dec-01 10:33N 54°25' W 000°02'9 9.3
2016-Dec-01 09:33N 54°31' W 000°14'9 9.4
2016-Dec-01 08:33N 54°40' W 000°22'3210.3
2016-Dec-01 05:26N 55°09' W 000°46'1010.5
2016-Dec-01 04:30N 55°17' W 000°54'1010.6
2016-Dec-01 03:32N 55°27' W 001°03'1110.9
2016-Dec-01 02:32N 55°36' W 001°11'1110.6
2016-Dec-01 01:32N 55°45' W 001°21'1510.4
2016-Dec-01 00:08N 55°56' W 001°39'610.1
2016-Nov-30 23:33N 55°60' W 001°47'10 9.8
2016-Nov-30 22:33N 56°07' W 001°59'10 9.7
2016-Nov-30 21:33N 56°14' W 002°11'10 9.8
2016-Nov-30 20:33N 56°21' W 002°23'10 9.9
2016-Nov-30 19:33N 56°28' W 002°36'1111.2
2016-Nov-30 18:33N 56°28' W 002°56'0 0.0
2016-Nov-30 16:29N 56°28' W 002°56'0 0.0
2016-Nov-30 15:23N 56°28' W 002°56'0 0.0
2016-Nov-30 14:32N 56°28' W 002°56'0 0.0
2016-Nov-30 13:29N 56°28' W 002°56'0 0.0
2016-Nov-30 12:29N 56°28' W 002°56'0 0.0
2016-Nov-30 11:17N 56°28' W 002°56'0 0.0
2016-Nov-30 10:32N 56°28' W 002°56'0 0.0
2016-Nov-30 09:14N 56°28' W 002°56'0 0.0
2016-Nov-30 08:17N 56°28' W 002°56'0 0.0
2016-Nov-30 07:29N 56°28' W 002°56'0 0.0
2016-Nov-30 06:29N 56°28' W 002°56'0 0.0
2016-Nov-30 05:29N 56°28' W 002°56'0 0.0
2016-Nov-30 04:17N 56°28' W 002°56'0 0.0
2016-Nov-30 03:29N 56°28' W 002°56'0 0.0
2016-Nov-29 22:17N 56°28' W 002°56'0 0.0
2016-Nov-29 21:23N 56°28' W 002°56'0 0.0
2016-Nov-29 20:32N 56°28' W 002°56'0 0.0
2016-Nov-29 19:32N 56°28' W 002°56'0 0.0
2016-Nov-29 17:32N 56°28' W 002°56'401411.7
2016-Nov-29 16:33N 61°59' E 004°27'5 5.3
2016-Nov-29 15:33N 62°03' E 004°34'403406.2
2016-Nov-29 14:33N 56°27' W 002°42'5 5.4
2016-Nov-29 13:33N 56°29' W 002°33'3 3.1
2016-Nov-29 12:33N 56°31' W 002°28'3 3.3
2016-Nov-29 11:33N 56°32' W 002°22'8 8.4
2016-Nov-29 10:33N 56°38' W 002°11'420414.4
2016-Nov-29 09:33N 62°29' E 005°25'5 5.4
2016-Nov-29 08:33N 62°33' E 005°32'399401.1
2016-Nov-29 07:33N 57°04' W 001°53'9 9.0
2016-Nov-29 06:33N 57°12' W 001°48'407404.7
2016-Nov-29 05:33N 62°46' E 005°58'392394.0
2016-Nov-29 04:33N 57°27' W 001°37'9 8.7
2016-Nov-29 03:32N 57°35' W 001°31'401406.1
2016-Nov-29 02:33N 62°60' E 006°25'5 5.5
2016-Nov-29 01:33N 63°04' E 006°33'6 5.5
2016-Nov-29 00:33N 63°08' E 006°41'5 4.8
2016-Nov-28 23:33N 63°11' E 006°48'5 5.2
2016-Nov-28 22:33N 63°15' E 006°56'6 5.8
2016-Nov-28 21:33N 63°19' E 007°04'4 4.0
2016-Nov-28 20:33N 63°22' E 007°11'6 5.8
2016-Nov-28 19:33N 63°27' E 007°19'5 4.9
2016-Nov-28 18:33N 63°31' E 007°26'5 5.1
2016-Nov-28 17:33N 63°34' E 007°34'5 4.7
2016-Nov-28 16:33N 63°38' E 007°41'4 4.5
2016-Nov-28 15:33N 63°41' E 007°48'5 4.6
2016-Nov-28 14:33N 63°44' E 007°55'4 4.1
2016-Nov-28 13:33N 63°48' E 007°60'5 5.3
2016-Nov-28 12:33N 63°52' E 008°08'5 4.7
2016-Nov-28 11:33N 63°55' E 008°16'4 4.3
2016-Nov-28 10:33N 63°58' E 008°23'  
Track history (hours):
 
Tides and Currents Weather Stations Pressure Air Temp Water Temp Dewpoint Dewpoint Depression Visibility Wind Speed Wind Dir Waves Ship Positions

Wilson Heron

Last reported at 2016-Dec-08 06:33 UTC. Time now 2016-Dec-09 09:50 UTC.
Position N 43°43' W 005°06'.

Length 91 m; draft 4.1 m.

Type: Cargo ship. MMSI: 249075000.

Date/timePositionNaut miles runAvg speedWind from/ knotsBaromVisibWave heightAir tempDewpointWater temp
2016-Dec-08 06:33N 43°43' W 005°06'10 9.7
2016-Dec-08 05:32N 43°42' W 004°52'10 9.7
2016-Dec-08 04:33N 43°42' W 004°39'89 9.8
2016-Dec-07 19:29N 43°33' W 002°36'1010.3
2016-Dec-07 18:29N 43°29' W 002°23'1110.4
2016-Dec-07 17:28N 43°25' W 002°10'1010.5
2016-Dec-07 16:33N 43°22' W 001°58'1 0.0
2016-Dec-06 23:29N 43°21' W 001°57'28310.3
2016-Dec-05 20:07N 47°31' W 005°05'910.8
2016-Dec-05 19:17N 47°40' W 005°10'810.4
2016-Dec-05 18:30N 47°47' W 005°16'96 7.8
2016-Dec-05 06:18N 49°19' W 004°39'3010.8
2016-Dec-05 03:33N 49°34' W 004°00'1611.8
2016-Dec-05 02:12N 49°42' W 003°39'711.5
2016-Dec-05 01:33N 49°46' W 003°29'1110.9
2016-Dec-05 00:33N 49°51' W 003°14'1010.1
2016-Dec-04 23:33N 49°56' W 003°01'9 9.4
2016-Dec-04 22:33N 49°60' W 002°47'34 9.8
2016-Dec-04 19:06N 50°09' W 001°57'812.1
2016-Dec-04 18:25N 50°12' W 001°45'1112.8
2016-Dec-04 17:33N 50°15' W 001°28'2713.3
2016-Dec-04 15:33N 50°23' W 000°48'1312.1
2016-Dec-04 14:30N 50°26' W 000°29'1111.2
2016-Dec-04 13:32N 50°29' W 000°13'1010.2
2016-Dec-04 12:33N 50°32' E 000°02'9 9.4
2016-Dec-04 11:33N 50°35' E 000°16'3310.5
2016-Dec-04 08:24N 50°51' E 001°02'1012.3
2016-Dec-04 07:33N 50°58' E 001°15'1211.9
2016-Dec-04 06:33N 51°05' E 001°29'1010.5
2016-Dec-04 05:33N 51°12' E 001°42'10 9.5
2016-Dec-04 04:33N 51°19' E 001°51'9 9.2
2016-Dec-04 03:33N 51°27' E 001°59'10 9.8
2016-Dec-04 02:33N 51°34' E 002°10'5410.8
2016-Dec-03 21:32N 52°03' E 003°24'1111.3
2016-Dec-03 20:33N 52°03' E 003°43'9 9.3
2016-Dec-03 19:33N 52°02' E 003°58'1110.8
2016-Dec-03 18:33N 51°56' E 004°12'2 2.3
2016-Dec-03 17:32N 51°54' E 004°14'0 0.0
2016-Dec-03 16:32N 51°54' E 004°14'0 0.0
2016-Dec-03 15:32N 51°54' E 004°14'0 0.0
2016-Dec-03 14:33N 51°54' E 004°14'0 0.0
2016-Dec-03 13:32N 51°54' E 004°14'0 0.0
2016-Dec-03 12:31N 51°54' E 004°14'0 0.0
2016-Dec-03 11:32N 51°54' E 004°14'0 0.0
2016-Dec-03 10:32N 51°54' E 004°14'0 0.0
2016-Dec-03 09:31N 51°54' E 004°14'0 0.0
2016-Dec-03 08:32N 51°54' E 004°14'0 0.0
2016-Dec-03 07:32N 51°54' E 004°14'0 0.0
2016-Dec-03 06:32N 51°54' E 004°14'0 0.0
2016-Dec-03 05:32N 51°54' E 004°14'0 0.0
2016-Dec-03 04:32N 51°54' E 004°14'0 0.0
2016-Dec-03 03:31N 51°54' E 004°14'0 0.0
2016-Dec-03 02:29N 51°54' E 004°14'0 0.0
2016-Dec-03 01:32N 51°54' E 004°14'0 0.0
2016-Dec-03 00:32N 51°54' E 004°14'0 0.0
2016-Dec-02 23:32N 51°54' E 004°14'0 0.0
2016-Dec-02 22:32N 51°54' E 004°14'0 0.1
2016-Dec-02 21:32N 51°54' E 004°14'0 0.0
2016-Dec-02 20:29N 51°54' E 004°14'0 0.0
2016-Dec-02 19:32N 51°54' E 004°14'0 0.0
2016-Dec-02 18:31N 51°54' E 004°14'0 0.0
2016-Dec-02 17:31N 51°54' E 004°14'0 0.0
2016-Dec-02 16:32N 51°54' E 004°14'0 0.0
2016-Dec-02 15:32N 51°54' E 004°14'0 0.0
2016-Dec-02 14:32N 51°54' E 004°14'0 0.0
2016-Dec-02 13:32N 51°54' E 004°14'0 0.0
2016-Dec-02 12:31N 51°54' E 004°14'0 0.0
2016-Dec-02 11:31N 51°54' E 004°14'0 0.0
2016-Dec-02 10:31N 51°54' E 004°14'1 0.9
2016-Dec-02 09:33N 51°54' E 004°14'1010.0
2016-Dec-02 08:33N 51°60' E 004°00'10 9.7
2016-Dec-02 07:33N 52°02' E 003°44'19 8.8
2016-Dec-02 05:25N 52°12' E 003°19'8 8.4
2016-Dec-02 04:31N 52°16' E 003°09'55 8.7
2016-Dec-01 22:13N 52°47' E 001°54'6 9.2
2016-Dec-01 21:33N 52°50' E 001°46'10 9.7
2016-Dec-01 20:33N 52°57' E 001°35'1010.3
2016-Dec-01 19:33N 53°06' E 001°25'1111.2
2016-Dec-01 18:32N 53°15' E 001°15'5611.2
2016-Dec-01 13:32N 54°03' E 000°26'9 9.6
2016-Dec-01 12:33N 54°11' E 000°18'9 9.4
2016-Dec-01 11:33N 54°19' E 000°10'9 9.3
2016-Dec-01 10:33N 54°25' W 000°02'9 9.3
2016-Dec-01 09:33N 54°31' W 000°14'9 9.4
2016-Dec-01 08:33N 54°40' W 000°22'3210.3
2016-Dec-01 05:26N 55°09' W 000°46'1010.5
2016-Dec-01 04:30N 55°17' W 000°54'1010.6
2016-Dec-01 03:32N 55°27' W 001°03'1110.9
2016-Dec-01 02:32N 55°36' W 001°11'1110.6
2016-Dec-01 01:32N 55°45' W 001°21'1510.4
2016-Dec-01 00:08N 55°56' W 001°39'610.1
2016-Nov-30 23:33N 55°60' W 001°47'10 9.8
2016-Nov-30 22:33N 56°07' W 001°59'10 9.7
2016-Nov-30 21:33N 56°14' W 002°11'10 9.8
2016-Nov-30 20:33N 56°21' W 002°23'10 9.9
2016-Nov-30 19:33N 56°28' W 002°36'1111.2
2016-Nov-30 18:33N 56°28' W 002°56'0 0.0
2016-Nov-30 16:29N 56°28' W 002°56'0 0.0
2016-Nov-30 15:23N 56°28' W 002°56'0 0.0
2016-Nov-30 14:32N 56°28' W 002°56'0 0.0
2016-Nov-30 13:29N 56°28' W 002°56'0 0.0
2016-Nov-30 12:29N 56°28' W 002°56'0 0.0
2016-Nov-30 11:17N 56°28' W 002°56'0 0.0
2016-Nov-30 10:32N 56°28' W 002°56'0 0.0
2016-Nov-30 09:14N 56°28' W 002°56'0 0.0
2016-Nov-30 08:17N 56°28' W 002°56'0 0.0
2016-Nov-30 07:29N 56°28' W 002°56'0 0.0
2016-Nov-30 06:29N 56°28' W 002°56'0 0.0
2016-Nov-30 05:29N 56°28' W 002°56'0 0.0
2016-Nov-30 04:17N 56°28' W 002°56'0 0.0
2016-Nov-30 03:29N 56°28' W 002°56'0 0.0
2016-Nov-29 22:17N 56°28' W 002°56'0 0.0
2016-Nov-29 21:23N 56°28' W 002°56'0 0.0
2016-Nov-29 20:32N 56°28' W 002°56'0 0.0
2016-Nov-29 19:32N 56°28' W 002°56'0 0.0
2016-Nov-29 17:32N 56°28' W 002°56'401411.7
2016-Nov-29 16:33N 61°59' E 004°27'5 5.3
2016-Nov-29 15:33N 62°03' E 004°34'403406.2
2016-Nov-29 14:33N 56°27' W 002°42'5 5.4
2016-Nov-29 13:33N 56°29' W 002°33'3 3.1
2016-Nov-29 12:33N 56°31' W 002°28'3 3.3
2016-Nov-29 11:33N 56°32' W 002°22'8 8.4
2016-Nov-29 10:33N 56°38' W 002°11'420414.4
2016-Nov-29 09:33N 62°29' E 005°25'5 5.4
2016-Nov-29 08:33N 62°33' E 005°32'399401.1
2016-Nov-29 07:33N 57°04' W 001°53'9 9.0
2016-Nov-29 06:33N 57°12' W 001°48'407404.7
2016-Nov-29 05:33N 62°46' E 005°58'392394.0
2016-Nov-29 04:33N 57°27' W 001°37'9 8.7
2016-Nov-29 03:32N 57°35' W 001°31'401406.1
2016-Nov-29 02:33N 62°60' E 006°25'5 5.5
2016-Nov-29 01:33N 63°04' E 006°33'6 5.5
2016-Nov-29 00:33N 63°08' E 006°41'5 4.8
2016-Nov-28 23:33N 63°11' E 006°48'5 5.2
2016-Nov-28 22:33N 63°15' E 006°56'6 5.8
2016-Nov-28 21:33N 63°19' E 007°04'4 4.0
2016-Nov-28 20:33N 63°22' E 007°11'6 5.8
2016-Nov-28 19:33N 63°27' E 007°19'5 4.9
2016-Nov-28 18:33N 63°31' E 007°26'5 5.1
2016-Nov-28 17:33N 63°34' E 007°34'5 4.7
2016-Nov-28 16:33N 63°38' E 007°41'4 4.5
2016-Nov-28 15:33N 63°41' E 007°48'5 4.6
2016-Nov-28 14:33N 63°44' E 007°55'4 4.1
2016-Nov-28 13:33N 63°48' E 007°60'5 5.3
2016-Nov-28 12:33N 63°52' E 008°08'5 4.7
2016-Nov-28 11:33N 63°55' E 008°16'4 4.3
2016-Nov-28 10:33N 63°58' E 008°23'  

Dump ship's entire track history